sensor_id;sensor_type;location;lat;lon;timestamp;P1;durP1;ratioP1;P2;durP2;ratioP2
43152;SDS011;28756;49.064;9.290;2022-11-15T00:00:51;2.38;;;1.83;;
43152;SDS011;28756;49.064;9.290;2022-11-15T00:03:19;2.38;;;1.38;;
43152;SDS011;28756;49.064;9.290;2022-11-15T00:05:47;2.50;;;1.33;;
43152;SDS011;28756;49.064;9.290;2022-11-15T00:08:13;1.85;;;1.40;;
43152;SDS011;28756;49.064;9.290;2022-11-15T00:10:39;3.45;;;1.60;;
43152;SDS011;28756;49.064;9.290;2022-11-15T00:13:06;2.40;;;1.50;;
43152;SDS011;28756;49.064;9.290;2022-11-15T00:15:39;5.32;;;1.58;;
43152;SDS011;28756;49.064;9.290;2022-11-15T00:18:06;2.40;;;1.60;;
43152;SDS011;28756;49.064;9.290;2022-11-15T00:20:37;3.25;;;1.70;;
43152;SDS011;28756;49.064;9.290;2022-11-15T00:23:03;2.25;;;1.58;;
43152;SDS011;28756;49.064;9.290;2022-11-15T00:25:30;2.65;;;1.55;;
43152;SDS011;28756;49.064;9.290;2022-11-15T00:27:57;3.40;;;1.90;;
43152;SDS011;28756;49.064;9.290;2022-11-15T00:30:24;3.33;;;1.70;;
43152;SDS011;28756;49.064;9.290;2022-11-15T00:32:50;6.80;;;2.15;;
43152;SDS011;28756;49.064;9.290;2022-11-15T00:35:16;4.00;;;2.42;;
43152;SDS011;28756;49.064;9.290;2022-11-15T00:37:43;5.72;;;3.50;;
43152;SDS011;28756;49.064;9.290;2022-11-15T00:40:09;5.75;;;3.10;;
43152;SDS011;28756;49.064;9.290;2022-11-15T00:42:37;5.80;;;2.70;;
43152;SDS011;28756;49.064;9.290;2022-11-15T00:45:03;5.30;;;2.58;;
43152;SDS011;28756;49.064;9.290;2022-11-15T00:47:30;3.22;;;2.17;;
43152;SDS011;28756;49.064;9.290;2022-11-15T00:49:56;3.42;;;1.90;;
43152;SDS011;28756;49.064;9.290;2022-11-15T00:52:23;2.75;;;1.75;;
43152;SDS011;28756;49.064;9.290;2022-11-15T00:54:48;2.30;;;1.70;;
43152;SDS011;28756;49.064;9.290;2022-11-15T00:57:14;3.25;;;2.10;;
43152;SDS011;28756;49.064;9.290;2022-11-15T00:59:40;3.05;;;1.73;;
43152;SDS011;28756;49.064;9.290;2022-11-15T01:02:05;2.65;;;1.48;;
43152;SDS011;28756;49.064;9.290;2022-11-15T01:04:31;3.00;;;1.58;;
43152;SDS011;28756;49.064;9.290;2022-11-15T01:06:57;3.55;;;1.85;;
43152;SDS011;28756;49.064;9.290;2022-11-15T01:09:22;2.83;;;1.48;;
43152;SDS011;28756;49.064;9.290;2022-11-15T01:11:48;3.55;;;1.63;;
43152;SDS011;28756;49.064;9.290;2022-11-15T01:14:14;2.75;;;1.80;;
43152;SDS011;28756;49.064;9.290;2022-11-15T01:16:40;2.30;;;1.65;;
43152;SDS011;28756;49.064;9.290;2022-11-15T01:19:05;2.17;;;1.52;;
43152;SDS011;28756;49.064;9.290;2022-11-15T01:21:31;2.13;;;1.52;;
43152;SDS011;28756;49.064;9.290;2022-11-15T01:23:57;3.05;;;1.40;;
43152;SDS011;28756;49.064;9.290;2022-11-15T01:26:23;3.15;;;1.50;;
43152;SDS011;28756;49.064;9.290;2022-11-15T01:28:50;1.98;;;1.70;;
43152;SDS011;28756;49.064;9.290;2022-11-15T01:31:17;1.95;;;1.40;;
43152;SDS011;28756;49.064;9.290;2022-11-15T01:33:45;3.05;;;1.63;;
43152;SDS011;28756;49.064;9.290;2022-11-15T01:36:13;2.45;;;1.40;;
43152;SDS011;28756;49.064;9.290;2022-11-15T01:38:41;2.30;;;1.50;;
43152;SDS011;28756;49.064;9.290;2022-11-15T01:41:17;2.55;;;1.40;;
43152;SDS011;28756;49.064;9.290;2022-11-15T01:43:48;1.83;;;1.30;;
43152;SDS011;28756;49.064;9.290;2022-11-15T01:46:29;2.63;;;1.60;;
43152;SDS011;28756;49.064;9.290;2022-11-15T01:49:01;1.98;;;1.50;;
43152;SDS011;28756;49.064;9.290;2022-11-15T01:51:36;2.25;;;1.45;;
43152;SDS011;28756;49.064;9.290;2022-11-15T01:54:08;2.20;;;1.55;;
43152;SDS011;28756;49.064;9.290;2022-11-15T01:56:41;4.05;;;1.85;;
43152;SDS011;28756;49.064;9.290;2022-11-15T01:59:16;3.00;;;1.70;;
43152;SDS011;28756;49.064;9.290;2022-11-15T02:01:44;4.32;;;1.80;;
43152;SDS011;28756;49.064;9.290;2022-11-15T02:04:12;3.25;;;1.80;;
43152;SDS011;28756;49.064;9.290;2022-11-15T02:06:42;1.95;;;1.45;;
43152;SDS011;28756;49.064;9.290;2022-11-15T02:09:09;3.17;;;1.92;;
43152;SDS011;28756;49.064;9.290;2022-11-15T02:11:36;2.83;;;2.03;;
43152;SDS011;28756;49.064;9.290;2022-11-15T02:14:02;2.53;;;1.70;;
43152;SDS011;28756;49.064;9.290;2022-11-15T02:21:45;3.30;;;1.90;;
43152;SDS011;28756;49.064;9.290;2022-11-15T02:28:38;2.47;;;1.65;;
43152;SDS011;28756;49.064;9.290;2022-11-15T02:31:39;2.97;;;1.55;;
43152;SDS011;28756;49.064;9.290;2022-11-15T02:34:35;2.50;;;1.65;;
43152;SDS011;28756;49.064;9.290;2022-11-15T02:43:10;1.98;;;1.35;;
43152;SDS011;28756;49.064;9.290;2022-11-15T02:48:47;2.30;;;1.30;;
43152;SDS011;28756;49.064;9.290;2022-11-15T02:51:14;3.60;;;1.55;;
43152;SDS011;28756;49.064;9.290;2022-11-15T02:53:40;2.83;;;1.40;;
43152;SDS011;28756;49.064;9.290;2022-11-15T02:56:07;2.25;;;1.50;;
43152;SDS011;28756;49.064;9.290;2022-11-15T03:04:56;2.67;;;1.60;;
43152;SDS011;28756;49.064;9.290;2022-11-15T03:07:51;3.08;;;1.73;;
43152;SDS011;28756;49.064;9.290;2022-11-15T03:13:44;1.85;;;1.45;;
43152;SDS011;28756;49.064;9.290;2022-11-15T03:16:43;3.47;;;1.80;;
43152;SDS011;28756;49.064;9.290;2022-11-15T03:19:49;2.53;;;1.42;;
43152;SDS011;28756;49.064;9.290;2022-11-15T03:22:19;3.45;;;1.90;;
43152;SDS011;28756;49.064;9.290;2022-11-15T03:24:50;2.10;;;1.40;;
43152;SDS011;28756;49.064;9.290;2022-11-15T03:27:21;2.10;;;1.60;;
43152;SDS011;28756;49.064;9.290;2022-11-15T03:29:58;3.28;;;1.60;;
43152;SDS011;28756;49.064;9.290;2022-11-15T03:32:29;2.03;;;1.58;;
43152;SDS011;28756;49.064;9.290;2022-11-15T03:35:02;4.40;;;2.33;;
43152;SDS011;28756;49.064;9.290;2022-11-15T03:37:37;3.53;;;1.30;;
43152;SDS011;28756;49.064;9.290;2022-11-15T03:40:42;2.33;;;1.30;;
43152;SDS011;28756;49.064;9.290;2022-11-15T03:46:43;1.92;;;1.40;;
43152;SDS011;28756;49.064;9.290;2022-11-15T03:49:41;1.63;;;1.20;;
43152;SDS011;28756;49.064;9.290;2022-11-15T03:52:11;1.92;;;1.23;;
43152;SDS011;28756;49.064;9.290;2022-11-15T03:54:47;3.33;;;1.80;;
43152;SDS011;28756;49.064;9.290;2022-11-15T03:57:15;2.58;;;1.52;;
43152;SDS011;28756;49.064;9.290;2022-11-15T03:59:41;2.90;;;1.30;;
43152;SDS011;28756;49.064;9.290;2022-11-15T04:02:07;2.50;;;1.70;;
43152;SDS011;28756;49.064;9.290;2022-11-15T04:04:32;2.60;;;1.67;;
43152;SDS011;28756;49.064;9.290;2022-11-15T04:06:58;2.25;;;1.60;;
43152;SDS011;28756;49.064;9.290;2022-11-15T04:09:24;1.98;;;1.30;;
43152;SDS011;28756;49.064;9.290;2022-11-15T04:11:49;2.10;;;1.48;;
43152;SDS011;28756;49.064;9.290;2022-11-15T04:14:15;2.17;;;1.40;;
43152;SDS011;28756;49.064;9.290;2022-11-15T04:16:41;2.33;;;1.30;;
43152;SDS011;28756;49.064;9.290;2022-11-15T04:19:06;1.55;;;1.25;;
43152;SDS011;28756;49.064;9.290;2022-11-15T04:21:51;1.55;;;1.40;;
43152;SDS011;28756;49.064;9.290;2022-11-15T04:24:35;2.95;;;1.70;;
43152;SDS011;28756;49.064;9.290;2022-11-15T04:27:01;3.17;;;1.60;;
43152;SDS011;28756;49.064;9.290;2022-11-15T04:29:26;1.98;;;1.60;;
43152;SDS011;28756;49.064;9.290;2022-11-15T04:32:02;2.70;;;1.48;;
43152;SDS011;28756;49.064;9.290;2022-11-15T04:34:31;3.72;;;2.00;;
43152;SDS011;28756;49.064;9.290;2022-11-15T04:36:57;2.10;;;1.48;;
43152;SDS011;28756;49.064;9.290;2022-11-15T04:39:42;1.83;;;1.30;;
43152;SDS011;28756;49.064;9.290;2022-11-15T04:42:08;1.60;;;1.30;;
43152;SDS011;28756;49.064;9.290;2022-11-15T04:44:35;2.30;;;1.40;;
43152;SDS011;28756;49.064;9.290;2022-11-15T04:47:00;2.50;;;1.40;;
43152;SDS011;28756;49.064;9.290;2022-11-15T04:49:27;1.50;;;1.20;;
43152;SDS011;28756;49.064;9.290;2022-11-15T04:51:52;1.42;;;1.20;;
43152;SDS011;28756;49.064;9.290;2022-11-15T04:54:18;4.80;;;1.45;;
43152;SDS011;28756;49.064;9.290;2022-11-15T04:56:44;1.95;;;1.83;;
43152;SDS011;28756;49.064;9.290;2022-11-15T04:59:09;2.35;;;1.30;;
43152;SDS011;28756;49.064;9.290;2022-11-15T05:01:35;2.63;;;1.60;;
43152;SDS011;28756;49.064;9.290;2022-11-15T05:04:01;2.30;;;1.60;;
43152;SDS011;28756;49.064;9.290;2022-11-15T05:06:49;3.22;;;1.75;;
43152;SDS011;28756;49.064;9.290;2022-11-15T05:09:17;2.55;;;1.52;;
43152;SDS011;28756;49.064;9.290;2022-11-15T05:11:44;4.25;;;1.80;;
43152;SDS011;28756;49.064;9.290;2022-11-15T05:14:10;4.22;;;1.75;;
43152;SDS011;28756;49.064;9.290;2022-11-15T05:16:36;3.42;;;1.70;;
43152;SDS011;28756;49.064;9.290;2022-11-15T05:19:02;2.88;;;1.40;;
43152;SDS011;28756;49.064;9.290;2022-11-15T05:21:28;2.50;;;1.65;;
43152;SDS011;28756;49.064;9.290;2022-11-15T05:23:55;3.45;;;1.67;;
43152;SDS011;28756;49.064;9.290;2022-11-15T05:26:20;2.42;;;1.65;;
43152;SDS011;28756;49.064;9.290;2022-11-15T05:28:46;3.60;;;2.28;;
43152;SDS011;28756;49.064;9.290;2022-11-15T05:31:17;3.58;;;1.80;;
43152;SDS011;28756;49.064;9.290;2022-11-15T05:33:43;1.65;;;1.42;;
43152;SDS011;28756;49.064;9.290;2022-11-15T05:36:12;3.53;;;2.20;;
43152;SDS011;28756;49.064;9.290;2022-11-15T05:38:58;2.67;;;1.67;;
43152;SDS011;28756;49.064;9.290;2022-11-15T05:41:26;1.80;;;1.40;;
43152;SDS011;28756;49.064;9.290;2022-11-15T05:43:58;1.92;;;1.50;;
43152;SDS011;28756;49.064;9.290;2022-11-15T05:46:26;2.95;;;1.60;;
43152;SDS011;28756;49.064;9.290;2022-11-15T05:48:52;2.20;;;1.70;;
43152;SDS011;28756;49.064;9.290;2022-11-15T05:51:20;2.17;;;1.27;;
43152;SDS011;28756;49.064;9.290;2022-11-15T05:53:48;1.83;;;1.25;;
43152;SDS011;28756;49.064;9.290;2022-11-15T05:56:16;2.08;;;1.55;;
43152;SDS011;28756;49.064;9.290;2022-11-15T05:58:42;1.73;;;1.40;;
43152;SDS011;28756;49.064;9.290;2022-11-15T06:01:08;2.30;;;1.77;;
43152;SDS011;28756;49.064;9.290;2022-11-15T06:03:37;2.58;;;1.80;;
43152;SDS011;28756;49.064;9.290;2022-11-15T06:06:03;2.17;;;1.75;;
43152;SDS011;28756;49.064;9.290;2022-11-15T06:08:28;2.97;;;1.98;;
43152;SDS011;28756;49.064;9.290;2022-11-15T06:10:54;3.00;;;1.88;;
43152;SDS011;28756;49.064;9.290;2022-11-15T06:13:20;2.10;;;1.70;;
43152;SDS011;28756;49.064;9.290;2022-11-15T06:15:46;2.83;;;2.00;;
43152;SDS011;28756;49.064;9.290;2022-11-15T06:18:11;2.40;;;1.80;;
43152;SDS011;28756;49.064;9.290;2022-11-15T06:20:37;3.90;;;1.90;;
43152;SDS011;28756;49.064;9.290;2022-11-15T06:23:03;3.75;;;1.90;;
43152;SDS011;28756;49.064;9.290;2022-11-15T06:25:32;6.10;;;2.10;;
43152;SDS011;28756;49.064;9.290;2022-11-15T06:27:58;2.97;;;2.05;;
43152;SDS011;28756;49.064;9.290;2022-11-15T06:30:25;3.90;;;1.90;;
43152;SDS011;28756;49.064;9.290;2022-11-15T06:32:52;9.32;;;1.60;;
43152;SDS011;28756;49.064;9.290;2022-11-15T06:35:28;7.15;;;1.95;;
43152;SDS011;28756;49.064;9.290;2022-11-15T06:37:54;8.40;;;3.17;;
43152;SDS011;28756;49.064;9.290;2022-11-15T06:40:20;3.00;;;1.80;;
43152;SDS011;28756;49.064;9.290;2022-11-15T06:42:46;4.32;;;1.70;;
43152;SDS011;28756;49.064;9.290;2022-11-15T06:45:12;6.20;;;2.20;;
43152;SDS011;28756;49.064;9.290;2022-11-15T06:47:47;4.45;;;1.60;;
43152;SDS011;28756;49.064;9.290;2022-11-15T06:50:13;3.00;;;1.60;;
43152;SDS011;28756;49.064;9.290;2022-11-15T06:52:39;2.53;;;1.80;;
43152;SDS011;28756;49.064;9.290;2022-11-15T06:55:05;2.90;;;1.65;;
43152;SDS011;28756;49.064;9.290;2022-11-15T06:57:31;2.78;;;1.90;;
43152;SDS011;28756;49.064;9.290;2022-11-15T06:59:57;3.42;;;2.05;;
43152;SDS011;28756;49.064;9.290;2022-11-15T07:02:23;3.03;;;2.05;;
43152;SDS011;28756;49.064;9.290;2022-11-15T07:04:48;2.63;;;1.80;;
43152;SDS011;28756;49.064;9.290;2022-11-15T07:07:14;2.30;;;1.70;;
43152;SDS011;28756;49.064;9.290;2022-11-15T07:09:40;2.33;;;1.70;;
43152;SDS011;28756;49.064;9.290;2022-11-15T07:12:06;2.55;;;1.60;;
43152;SDS011;28756;49.064;9.290;2022-11-15T07:14:32;3.00;;;1.60;;
43152;SDS011;28756;49.064;9.290;2022-11-15T07:16:57;2.55;;;1.38;;
43152;SDS011;28756;49.064;9.290;2022-11-15T07:19:23;2.50;;;1.50;;
43152;SDS011;28756;49.064;9.290;2022-11-15T07:21:49;3.03;;;1.67;;
43152;SDS011;28756;49.064;9.290;2022-11-15T07:24:15;2.65;;;1.70;;
43152;SDS011;28756;49.064;9.290;2022-11-15T07:26:40;1.80;;;1.30;;
43152;SDS011;28756;49.064;9.290;2022-11-15T07:29:06;2.42;;;1.77;;
43152;SDS011;28756;49.064;9.290;2022-11-15T07:31:32;2.50;;;1.77;;
43152;SDS011;28756;49.064;9.290;2022-11-15T07:33:57;2.30;;;1.60;;
43152;SDS011;28756;49.064;9.290;2022-11-15T07:36:23;3.13;;;1.85;;
43152;SDS011;28756;49.064;9.290;2022-11-15T07:38:49;2.78;;;1.67;;
43152;SDS011;28756;49.064;9.290;2022-11-15T07:41:14;2.65;;;1.40;;
43152;SDS011;28756;49.064;9.290;2022-11-15T07:43:40;1.90;;;1.48;;
43152;SDS011;28756;49.064;9.290;2022-11-15T07:46:06;1.67;;;1.45;;
43152;SDS011;28756;49.064;9.290;2022-11-15T07:48:34;1.77;;;1.50;;
43152;SDS011;28756;49.064;9.290;2022-11-15T07:51:05;2.05;;;1.38;;
43152;SDS011;28756;49.064;9.290;2022-11-15T07:53:31;2.80;;;2.00;;
43152;SDS011;28756;49.064;9.290;2022-11-15T07:55:57;3.17;;;1.80;;
43152;SDS011;28756;49.064;9.290;2022-11-15T07:58:23;2.42;;;1.90;;
43152;SDS011;28756;49.064;9.290;2022-11-15T08:00:49;3.30;;;2.08;;
43152;SDS011;28756;49.064;9.290;2022-11-15T08:03:15;3.30;;;1.95;;
43152;SDS011;28756;49.064;9.290;2022-11-15T08:05:42;3.58;;;2.40;;
43152;SDS011;28756;49.064;9.290;2022-11-15T08:08:14;4.32;;;2.30;;
43152;SDS011;28756;49.064;9.290;2022-11-15T08:10:40;4.90;;;2.55;;
43152;SDS011;28756;49.064;9.290;2022-11-15T08:13:07;4.60;;;3.08;;
43152;SDS011;28756;49.064;9.290;2022-11-15T08:15:35;5.22;;;2.83;;
43152;SDS011;28756;49.064;9.290;2022-11-15T08:18:04;5.53;;;2.70;;
43152;SDS011;28756;49.064;9.290;2022-11-15T08:20:34;4.32;;;2.83;;
43152;SDS011;28756;49.064;9.290;2022-11-15T08:23:01;3.60;;;2.25;;
43152;SDS011;28756;49.064;9.290;2022-11-15T08:25:29;4.93;;;2.58;;
43152;SDS011;28756;49.064;9.290;2022-11-15T08:27:57;4.75;;;2.35;;
43152;SDS011;28756;49.064;9.290;2022-11-15T08:30:26;4.25;;;2.53;;
43152;SDS011;28756;49.064;9.290;2022-11-15T08:32:53;3.35;;;2.10;;
43152;SDS011;28756;49.064;9.290;2022-11-15T08:35:22;3.40;;;1.98;;
43152;SDS011;28756;49.064;9.290;2022-11-15T08:37:49;4.25;;;2.40;;
43152;SDS011;28756;49.064;9.290;2022-11-15T08:40:15;3.30;;;2.10;;
43152;SDS011;28756;49.064;9.290;2022-11-15T08:42:42;2.83;;;1.95;;
43152;SDS011;28756;49.064;9.290;2022-11-15T08:45:11;2.53;;;2.00;;
43152;SDS011;28756;49.064;9.290;2022-11-15T08:47:37;3.88;;;1.88;;
43152;SDS011;28756;49.064;9.290;2022-11-15T08:50:03;3.03;;;1.73;;
43152;SDS011;28756;49.064;9.290;2022-11-15T08:52:30;2.45;;;1.60;;
43152;SDS011;28756;49.064;9.290;2022-11-15T08:54:56;2.30;;;1.40;;
43152;SDS011;28756;49.064;9.290;2022-11-15T08:57:22;2.45;;;1.98;;
43152;SDS011;28756;49.064;9.290;2022-11-15T08:59:48;2.72;;;1.70;;
43152;SDS011;28756;49.064;9.290;2022-11-15T09:02:14;2.10;;;1.60;;
43152;SDS011;28756;49.064;9.290;2022-11-15T09:04:41;2.10;;;1.77;;
43152;SDS011;28756;49.064;9.290;2022-11-15T09:07:07;1.98;;;1.50;;
43152;SDS011;28756;49.064;9.290;2022-11-15T09:09:36;3.40;;;2.10;;
43152;SDS011;28756;49.064;9.290;2022-11-15T09:12:02;4.47;;;2.13;;
43152;SDS011;28756;49.064;9.290;2022-11-15T09:14:29;5.65;;;3.40;;
43152;SDS011;28756;49.064;9.290;2022-11-15T09:16:55;5.80;;;3.40;;
43152;SDS011;28756;49.064;9.290;2022-11-15T09:19:21;4.80;;;3.00;;
43152;SDS011;28756;49.064;9.290;2022-11-15T09:21:47;4.47;;;2.65;;
43152;SDS011;28756;49.064;9.290;2022-11-15T09:24:12;3.83;;;2.30;;
43152;SDS011;28756;49.064;9.290;2022-11-15T09:26:38;2.65;;;2.13;;
43152;SDS011;28756;49.064;9.290;2022-11-15T09:29:05;4.50;;;2.53;;
43152;SDS011;28756;49.064;9.290;2022-11-15T09:31:31;3.45;;;2.00;;
43152;SDS011;28756;49.064;9.290;2022-11-15T09:33:57;2.20;;;1.55;;
43152;SDS011;28756;49.064;9.290;2022-11-15T09:36:22;2.90;;;1.70;;
43152;SDS011;28756;49.064;9.290;2022-11-15T09:38:48;3.75;;;1.73;;
43152;SDS011;28756;49.064;9.290;2022-11-15T09:50:08;1.83;;;1.40;;
43152;SDS011;28756;49.064;9.290;2022-11-15T09:52:41;3.83;;;1.60;;
43152;SDS011;28756;49.064;9.290;2022-11-15T09:55:13;2.85;;;1.60;;
43152;SDS011;28756;49.064;9.290;2022-11-15T09:57:54;2.97;;;1.60;;
43152;SDS011;28756;49.064;9.290;2022-11-15T10:00:35;2.50;;;1.67;;
43152;SDS011;28756;49.064;9.290;2022-11-15T10:03:12;3.25;;;1.90;;
43152;SDS011;28756;49.064;9.290;2022-11-15T10:06:03;3.08;;;1.77;;
43152;SDS011;28756;49.064;9.290;2022-11-15T10:11:20;2.53;;;1.58;;
43152;SDS011;28756;49.064;9.290;2022-11-15T10:13:51;3.15;;;1.60;;
43152;SDS011;28756;49.064;9.290;2022-11-15T10:19:29;2.72;;;1.60;;
43152;SDS011;28756;49.064;9.290;2022-11-15T10:25:27;4.45;;;1.67;;
43152;SDS011;28756;49.064;9.290;2022-11-15T10:30:40;2.40;;;1.40;;
43152;SDS011;28756;49.064;9.290;2022-11-15T10:33:20;2.25;;;1.40;;
43152;SDS011;28756;49.064;9.290;2022-11-15T10:41:13;2.42;;;1.50;;
43152;SDS011;28756;49.064;9.290;2022-11-15T10:46:33;2.78;;;1.52;;
43152;SDS011;28756;49.064;9.290;2022-11-15T10:49:20;2.72;;;1.83;;
43152;SDS011;28756;49.064;9.290;2022-11-15T10:51:57;2.75;;;1.58;;
43152;SDS011;28756;49.064;9.290;2022-11-15T10:57:31;2.22;;;1.33;;
43152;SDS011;28756;49.064;9.290;2022-11-15T11:05:37;1.98;;;1.30;;
43152;SDS011;28756;49.064;9.290;2022-11-15T11:10:40;1.90;;;1.20;;
43152;SDS011;28756;49.064;9.290;2022-11-15T11:13:32;2.95;;;1.30;;
43152;SDS011;28756;49.064;9.290;2022-11-15T11:21:42;2.65;;;1.40;;
43152;SDS011;28756;49.064;9.290;2022-11-15T11:27:59;1.98;;;1.10;;
43152;SDS011;28756;49.064;9.290;2022-11-15T11:31:08;1.38;;;1.02;;
43152;SDS011;28756;49.064;9.290;2022-11-15T11:48:20;2.20;;;1.27;;
43152;SDS011;28756;49.064;9.290;2022-11-15T11:50:50;3.63;;;1.45;;
43152;SDS011;28756;49.064;9.290;2022-11-15T11:53:29;2.15;;;1.13;;
43152;SDS011;28756;49.064;9.290;2022-11-15T11:56:10;1.77;;;1.35;;
43152;SDS011;28756;49.064;9.290;2022-11-15T11:58:48;1.63;;;0.98;;
43152;SDS011;28756;49.064;9.290;2022-11-15T12:01:25;3.25;;;1.30;;
43152;SDS011;28756;49.064;9.290;2022-11-15T12:04:09;3.13;;;1.48;;
43152;SDS011;28756;49.064;9.290;2022-11-15T12:12:51;1.88;;;1.45;;
43152;SDS011;28756;49.064;9.290;2022-11-15T12:18:49;1.70;;;1.20;;
43152;SDS011;28756;49.064;9.290;2022-11-15T12:24:01;2.72;;;1.60;;
43152;SDS011;28756;49.064;9.290;2022-11-15T12:26:42;28.02;;;3.05;;
43152;SDS011;28756;49.064;9.290;2022-11-15T12:29:33;19.90;;;3.40;;
43152;SDS011;28756;49.064;9.290;2022-11-15T12:32:41;10.50;;;3.53;;
43152;SDS011;28756;49.064;9.290;2022-11-15T12:40:03;8.15;;;2.88;;
43152;SDS011;28756;49.064;9.290;2022-11-15T12:43:03;16.83;;;3.50;;
43152;SDS011;28756;49.064;9.290;2022-11-15T12:45:49;35.00;;;3.75;;
43152;SDS011;28756;49.064;9.290;2022-11-15T12:50:59;10.43;;;2.70;;
43152;SDS011;28756;49.064;9.290;2022-11-15T12:53:26;3.78;;;2.17;;
43152;SDS011;28756;49.064;9.290;2022-11-15T12:58:51;2.83;;;1.90;;
43152;SDS011;28756;49.064;9.290;2022-11-15T13:12:01;4.57;;;2.33;;
43152;SDS011;28756;49.064;9.290;2022-11-15T13:14:47;7.80;;;2.50;;
43152;SDS011;28756;49.064;9.290;2022-11-15T13:17:36;6.22;;;3.00;;
43152;SDS011;28756;49.064;9.290;2022-11-15T13:22:42;24.08;;;4.80;;
43152;SDS011;28756;49.064;9.290;2022-11-15T13:31:22;3.80;;;1.75;;
43152;SDS011;28756;49.064;9.290;2022-11-15T13:34:03;3.38;;;1.40;;
43152;SDS011;28756;49.064;9.290;2022-11-15T13:36:40;5.82;;;1.38;;
43152;SDS011;28756;49.064;9.290;2022-11-15T13:39:12;4.05;;;1.50;;
43152;SDS011;28756;49.064;9.290;2022-11-15T13:41:53;3.70;;;1.50;;
43152;SDS011;28756;49.064;9.290;2022-11-15T13:44:20;6.10;;;1.80;;
43152;SDS011;28756;49.064;9.290;2022-11-15T13:47:02;2.50;;;1.50;;
43152;SDS011;28756;49.064;9.290;2022-11-15T13:49:39;3.15;;;1.67;;
43152;SDS011;28756;49.064;9.290;2022-11-15T13:52:07;2.13;;;1.70;;
43152;SDS011;28756;49.064;9.290;2022-11-15T13:54:53;4.22;;;1.48;;
43152;SDS011;28756;49.064;9.290;2022-11-15T13:57:26;3.80;;;1.65;;
43152;SDS011;28756;49.064;9.290;2022-11-15T14:00:30;14.43;;;2.47;;
43152;SDS011;28756;49.064;9.290;2022-11-15T14:02:57;5.53;;;1.95;;
43152;SDS011;28756;49.064;9.290;2022-11-15T14:06:03;4.40;;;1.77;;
43152;SDS011;28756;49.064;9.290;2022-11-15T14:08:37;7.10;;;1.88;;
43152;SDS011;28756;49.064;9.290;2022-11-15T14:11:11;6.90;;;2.28;;
43152;SDS011;28756;49.064;9.290;2022-11-15T14:13:42;2.58;;;1.63;;
43152;SDS011;28756;49.064;9.290;2022-11-15T14:16:39;3.38;;;1.75;;
43152;SDS011;28756;49.064;9.290;2022-11-15T14:27:38;7.85;;;2.53;;
43152;SDS011;28756;49.064;9.290;2022-11-15T14:30:05;5.03;;;1.60;;
43152;SDS011;28756;49.064;9.290;2022-11-15T14:32:42;4.03;;;1.70;;
43152;SDS011;28756;49.064;9.290;2022-11-15T14:35:14;3.60;;;1.60;;
43152;SDS011;28756;49.064;9.290;2022-11-15T14:37:46;7.40;;;2.03;;
43152;SDS011;28756;49.064;9.290;2022-11-15T14:40:15;3.67;;;1.88;;
43152;SDS011;28756;49.064;9.290;2022-11-15T14:42:44;5.55;;;2.17;;
43152;SDS011;28756;49.064;9.290;2022-11-15T14:45:13;3.95;;;1.50;;
43152;SDS011;28756;49.064;9.290;2022-11-15T14:47:52;2.58;;;1.70;;
43152;SDS011;28756;49.064;9.290;2022-11-15T14:50:19;2.88;;;1.83;;
43152;SDS011;28756;49.064;9.290;2022-11-15T14:52:46;3.30;;;2.03;;
43152;SDS011;28756;49.064;9.290;2022-11-15T14:55:21;2.90;;;1.80;;
43152;SDS011;28756;49.064;9.290;2022-11-15T14:57:53;5.60;;;2.78;;
43152;SDS011;28756;49.064;9.290;2022-11-15T15:00:27;2.85;;;1.65;;
43152;SDS011;28756;49.064;9.290;2022-11-15T15:02:58;2.15;;;1.88;;
43152;SDS011;28756;49.064;9.290;2022-11-15T15:05:31;4.47;;;2.20;;
43152;SDS011;28756;49.064;9.290;2022-11-15T15:08:06;3.30;;;2.30;;
43152;SDS011;28756;49.064;9.290;2022-11-15T15:10:34;5.95;;;2.92;;
43152;SDS011;28756;49.064;9.290;2022-11-15T15:13:03;4.05;;;3.17;;
43152;SDS011;28756;49.064;9.290;2022-11-15T15:15:37;3.13;;;2.80;;
43152;SDS011;28756;49.064;9.290;2022-11-15T15:18:03;4.07;;;2.85;;
43152;SDS011;28756;49.064;9.290;2022-11-15T15:20:30;5.00;;;2.50;;
43152;SDS011;28756;49.064;9.290;2022-11-15T15:22:57;5.93;;;2.22;;
43152;SDS011;28756;49.064;9.290;2022-11-15T15:25:26;3.00;;;2.28;;
43152;SDS011;28756;49.064;9.290;2022-11-15T15:27:55;3.35;;;2.50;;
43152;SDS011;28756;49.064;9.290;2022-11-15T15:30:22;4.13;;;1.80;;
43152;SDS011;28756;49.064;9.290;2022-11-15T15:32:49;2.70;;;1.73;;
43152;SDS011;28756;49.064;9.290;2022-11-15T15:35:15;2.80;;;1.55;;
43152;SDS011;28756;49.064;9.290;2022-11-15T15:37:42;2.63;;;1.50;;
43152;SDS011;28756;49.064;9.290;2022-11-15T15:40:14;1.63;;;1.40;;
43152;SDS011;28756;49.064;9.290;2022-11-15T15:42:40;1.75;;;1.30;;
43152;SDS011;28756;49.064;9.290;2022-11-15T15:45:07;4.32;;;2.42;;
43152;SDS011;28756;49.064;9.290;2022-11-15T15:47:34;2.78;;;2.40;;
43152;SDS011;28756;49.064;9.290;2022-11-15T15:50:00;3.38;;;1.63;;
43152;SDS011;28756;49.064;9.290;2022-11-15T15:52:26;3.58;;;1.40;;
43152;SDS011;28756;49.064;9.290;2022-11-15T15:54:52;3.25;;;1.10;;
43152;SDS011;28756;49.064;9.290;2022-11-15T15:57:17;1.77;;;1.10;;
43152;SDS011;28756;49.064;9.290;2022-11-15T15:59:43;2.60;;;1.17;;
43152;SDS011;28756;49.064;9.290;2022-11-15T16:02:11;1.05;;;0.95;;
43152;SDS011;28756;49.064;9.290;2022-11-15T16:04:37;1.50;;;1.10;;
43152;SDS011;28756;49.064;9.290;2022-11-15T16:07:03;1.55;;;1.00;;
43152;SDS011;28756;49.064;9.290;2022-11-15T16:09:29;1.50;;;1.05;;
43152;SDS011;28756;49.064;9.290;2022-11-15T16:12:14;0.90;;;0.80;;
43152;SDS011;28756;49.064;9.290;2022-11-15T16:14:41;1.45;;;1.20;;
43152;SDS011;28756;49.064;9.290;2022-11-15T16:17:17;3.22;;;1.45;;
43152;SDS011;28756;49.064;9.290;2022-11-15T16:19:46;1.25;;;0.98;;
43152;SDS011;28756;49.064;9.290;2022-11-15T16:22:12;3.95;;;1.30;;
43152;SDS011;28756;49.064;9.290;2022-11-15T16:24:37;1.52;;;1.10;;
43152;SDS011;28756;49.064;9.290;2022-11-15T16:27:03;1.98;;;1.10;;
43152;SDS011;28756;49.064;9.290;2022-11-15T16:29:29;1.38;;;1.20;;
43152;SDS011;28756;49.064;9.290;2022-11-15T16:31:55;4.18;;;1.60;;
43152;SDS011;28756;49.064;9.290;2022-11-15T16:34:21;1.63;;;1.30;;
43152;SDS011;28756;49.064;9.290;2022-11-15T16:36:47;2.72;;;1.50;;
43152;SDS011;28756;49.064;9.290;2022-11-15T16:39:13;3.13;;;1.63;;
43152;SDS011;28756;49.064;9.290;2022-11-15T16:41:41;3.35;;;1.80;;
43152;SDS011;28756;49.064;9.290;2022-11-15T16:44:11;2.90;;;1.92;;
43152;SDS011;28756;49.064;9.290;2022-11-15T16:46:42;2.15;;;1.73;;
43152;SDS011;28756;49.064;9.290;2022-11-15T16:49:14;3.00;;;2.10;;
43152;SDS011;28756;49.064;9.290;2022-11-15T16:51:40;3.15;;;2.20;;
43152;SDS011;28756;49.064;9.290;2022-11-15T16:54:08;4.90;;;2.50;;
43152;SDS011;28756;49.064;9.290;2022-11-15T16:56:34;2.92;;;2.05;;
43152;SDS011;28756;49.064;9.290;2022-11-15T16:59:00;3.25;;;1.90;;
43152;SDS011;28756;49.064;9.290;2022-11-15T17:01:27;1.95;;;1.30;;
43152;SDS011;28756;49.064;9.290;2022-11-15T17:04:00;2.22;;;1.30;;
43152;SDS011;28756;49.064;9.290;2022-11-15T17:06:37;1.58;;;1.10;;
43152;SDS011;28756;49.064;9.290;2022-11-15T17:09:04;2.80;;;1.08;;
43152;SDS011;28756;49.064;9.290;2022-11-15T17:11:35;1.85;;;1.05;;
43152;SDS011;28756;49.064;9.290;2022-11-15T17:14:01;1.55;;;1.00;;
43152;SDS011;28756;49.064;9.290;2022-11-15T17:16:26;3.58;;;1.10;;
43152;SDS011;28756;49.064;9.290;2022-11-15T17:18:52;2.17;;;1.10;;
43152;SDS011;28756;49.064;9.290;2022-11-15T17:21:19;4.43;;;1.10;;
43152;SDS011;28756;49.064;9.290;2022-11-15T17:23:46;1.65;;;1.20;;
43152;SDS011;28756;49.064;9.290;2022-11-15T17:26:13;1.48;;;1.30;;
43152;SDS011;28756;49.064;9.290;2022-11-15T17:28:40;3.97;;;1.45;;
43152;SDS011;28756;49.064;9.290;2022-11-15T17:31:07;3.40;;;1.63;;
43152;SDS011;28756;49.064;9.290;2022-11-15T17:33:35;1.58;;;1.20;;